Time;durP1;ratioP1;P1;durP2;ratioP2;P2;SDS_P1;SDS_P2;PMS_P1;PMS_P2;Temp;Humidity;BMP_temperature;BMP_pressure;BME280_temperature;BME280_humidity;BME280_pressure;Samples;Min_cycle;Max_cycle;Signal;HPM_P1;HPM_P2
2022/09/24 00:01:37;;;;;;;7.22;3.90;;;21.80;99.90;;;;;;5016126;28;20392;-82
2022/09/24 00:04:07;;;;;;;3.67;2.78;;;21.80;99.90;;;;;;5034639;28;20382;-82
2022/09/24 00:06:39;;;;;;;11.45;2.80;;;22.00;99.90;;;;;;5034519;28;20397;-90
2022/09/24 00:09:07;;;;;;;3.83;2.20;;;22.30;99.90;;;;;;5034890;28;20381;-87
2022/09/24 00:11:34;;;;;;;7.33;2.50;;;22.40;99.90;;;;;;5034593;28;20401;-82
2022/09/24 00:14:01;;;;;;;7.35;2.67;;;22.20;99.90;;;;;;5034699;28;20451;-87
2022/09/24 00:16:33;;;;;;;6.40;2.40;;;22.20;99.90;;;;;;5034365;28;20465;-80
2022/09/24 00:19:01;;;;;;;2.30;2.10;;;22.10;99.90;;;;;;5034238;28;20381;-89
2022/09/24 00:21:30;;;;;;;8.15;2.53;;;22.10;99.90;;;;;;5033784;28;20876;-80
2022/09/24 00:24:04;;;;;;;2.55;1.75;;;21.90;99.90;;;;;;5034063;28;20734;-90
2022/09/24 00:26:49;;;;;;;5.03;1.80;;;21.50;99.90;;;;;;5034298;28;20423;-78
2022/09/24 00:29:25;;;;;;;7.63;1.80;;;21.80;99.90;;;;;;5034425;28;20377;-79
2022/09/24 00:31:53;;;;;;;4.78;1.30;;;22.00;99.90;;;;;;5015839;28;20400;-89
2022/09/24 00:34:21;;;;;;;1.50;1.00;;;22.30;96.80;;;;;;5033864;28;20377;-90
2022/09/24 00:36:48;;;;;;;0.98;0.90;;;22.10;96.40;;;;;;5033648;28;20786;-89
2022/09/24 00:39:15;;;;;;;2.45;1.17;;;22.20;95.80;;;;;;5034314;28;20703;-86
2022/09/24 00:41:47;;;;;;;5.78;1.40;;;22.50;98.10;;;;;;5035401;28;20774;-82
2022/09/24 00:44:44;;;;;;;5.40;1.73;;;22.60;97.80;;;;;;5034063;28;20418;-86
2022/09/24 00:47:17;;;;;;;7.57;1.35;;;22.80;97.50;;;;;;5033528;28;20385;-85
2022/09/24 00:49:46;;;;;;;4.97;1.33;;;23.30;96.40;;;;;;5033527;28;20421;-85
2022/09/24 00:52:15;;;;;;;2.58;1.00;;;23.00;94.50;;;;;;5033051;28;20362;-88
2022/09/24 00:54:44;;;;;;;0.90;0.90;;;22.40;95.30;;;;;;5033760;28;20765;-89
2022/09/24 00:57:12;;;;;;;7.97;1.42;;;21.80;94.20;;;;;;5016039;28;20726;-88
2022/09/24 00:59:41;;;;;;;8.45;1.48;;;21.50;97.00;;;;;;5033463;28;20381;-86
2022/09/24 01:02:08;;;;;;;4.32;1.25;;;21.30;96.80;;;;;;5032699;28;20714;-88
2022/09/24 01:04:35;;;;;;;4.45;1.10;;;21.00;96.20;;;;;;5033056;28;20465;-85
2022/09/24 01:07:03;;;;;;;1.10;1.00;;;20.80;96.60;;;;;;5033162;28;20421;-87
2022/09/24 01:09:30;;;;;;;1.00;0.90;;;20.50;96.30;;;;;;5032713;28;20381;-82
2022/09/24 01:12:36;;;;;;;1.30;0.90;;;20.20;97.00;;;;;;5015021;28;20390;-85
2022/09/24 01:15:28;;;;;;;1.50;0.90;;;20.20;97.60;;;;;;5032812;28;20849;-89
2022/09/24 01:18:01;;;;;;;4.63;1.30;;;20.00;96.90;;;;;;5032674;28;20381;-85
2022/09/24 01:20:43;;;;;;;2.00;1.20;;;20.10;97.30;;;;;;5032456;28;20377;-87
2022/09/24 01:23:31;;;;;;;1.20;1.10;;;20.10;97.70;;;;;;5032560;28;20374;-84
2022/09/24 01:26:08;;;;;;;4.35;1.10;;;20.20;98.50;;;;;;5032850;28;20380;-87
2022/09/24 01:28:43;;;;;;;8.05;1.30;;;20.50;98.20;;;;;;5033278;28;20448;-85
2022/09/24 01:31:29;;;;;;;5.68;1.50;;;20.70;97.70;;;;;;5032457;28;20388;-84
2022/09/24 01:34:00;;;;;;;6.95;1.35;;;20.80;98.20;;;;;;5014876;28;20388;-84
2022/09/24 01:36:29;;;;;;;4.45;1.25;;;20.80;98.10;;;;;;5032707;28;20436;-82
2022/09/24 01:38:58;;;;;;;1.65;1.25;;;20.70;97.60;;;;;;5032790;28;20715;-81
2022/09/24 01:41:26;;;;;;;7.68;1.48;;;20.80;98.10;;;;;;5032559;28;20373;-84
2022/09/24 01:43:53;;;;;;;5.80;1.20;;;20.80;97.00;;;;;;5033231;28;20758;-82
2022/09/24 01:46:21;;;;;;;4.03;1.20;;;20.80;96.80;;;;;;5032412;28;20381;-80
2022/09/24 01:48:49;;;;;;;12.25;1.50;;;20.80;96.80;;;;;;5034273;28;20377;-85
2022/09/24 01:51:32;;;;;;;9.95;1.58;;;20.80;96.70;;;;;;5032287;28;20377;-80
2022/09/24 01:54:08;;;;;;;11.63;1.60;;;20.80;97.40;;;;;;5032502;28;20370;-81
2022/09/24 01:56:47;;;;;;;12.63;1.60;;;20.80;97.10;;;;;;5032154;28;20412;-83
2022/09/24 01:59:30;;;;;;;2.60;1.10;;;20.90;97.10;;;;;;5032396;28;20385;-80
2022/09/24 02:02:16;;;;;;;1.70;1.00;;;21.10;96.90;;;;;;5032809;28;20722;-83
2022/09/24 02:04:49;;;;;;;4.88;1.20;;;22.60;91.70;;;;;;5032373;28;20427;-82
2022/09/24 02:07:30;;;;;;;6.90;1.52;;;22.90;90.30;;;;;;5032370;28;20725;-81
2022/09/24 02:09:57;;;;;;;3.03;1.50;;;23.50;94.40;;;;;;5014796;28;20382;-81
2022/09/24 02:12:34;;;;;;;4.03;1.60;;;24.00;94.90;;;;;;5036315;28;20385;-78
2022/09/24 02:15:31;;;;;;;4.95;1.40;;;23.90;95.10;;;;;;5035837;28;20802;-82
2022/09/24 02:18:02;;;;;;;2.07;1.20;;;23.30;94.90;;;;;;5035223;28;20401;-81
2022/09/24 02:20:32;;;;;;;2.00;1.30;;;22.90;91.20;;;;;;5035917;28;20366;-79
2022/09/24 02:22:59;;;;;;;3.10;1.40;;;22.70;89.90;;;;;;5036819;28;20389;-84
2022/09/24 02:25:41;;;;;;;3.63;1.30;;;22.60;94.80;;;;;;5035916;28;20388;-88
2022/09/24 02:28:08;;;;;;;3.08;1.45;;;22.60;97.80;;;;;;5035821;28;20477;-84
2022/09/24 02:30:44;;;;;;;3.83;1.25;;;22.60;99.50;;;;;;5035685;28;20956;-84
2022/09/24 02:35:59;;;;;;;3.72;1.88;;;22.30;98.40;;;;;;5036385;28;20389;-87
2022/09/24 02:38:26;;;;;;;2.45;1.40;;;22.10;97.10;;;;;;5035835;28;20900;-89
2022/09/24 02:40:54;;;;;;;1.83;1.50;;;22.00;99.60;;;;;;5036434;28;20711;-84
2022/09/24 02:43:21;;;;;;;4.18;2.42;;;21.80;97.70;;;;;;5035949;28;20374;-83
2022/09/24 02:45:48;;;;;;;2.70;1.52;;;21.70;96.80;;;;;;5035343;28;20413;-86
2022/09/24 02:48:15;;;;;;;3.13;1.80;;;21.70;99.20;;;;;;5034992;28;20882;-83
2022/09/24 02:50:42;;;;;;;2.47;1.40;;;21.60;99.90;;;;;;5036726;28;20381;-83
2022/09/24 02:53:09;;;;;;;3.22;1.30;;;21.40;99.90;;;;;;5035075;28;20845;-83
2022/09/24 02:55:36;;;;;;;2.47;1.20;;;21.20;99.90;;;;;;5035197;28;20400;-86
2022/09/24 02:58:03;;;;;;;2.22;1.33;;;21.00;99.90;;;;;;5036350;28;20393;-89
2022/09/24 03:00:30;;;;;;;1.20;1.10;;;21.00;99.90;;;;;;5035562;28;20845;-83
2022/09/24 03:02:58;;;;;;;2.25;1.10;;;20.80;99.90;;;;;;5038392;28;20457;-88
2022/09/24 03:05:25;;;;;;;2.05;1.20;;;20.70;99.90;;;;;;5038762;28;20455;-84
2022/09/24 03:07:52;;;;;;;2.15;1.10;;;20.60;99.90;;;;;;5040589;28;20427;-83
2022/09/24 03:10:19;;;;;;;3.58;1.10;;;20.40;99.90;;;;;;5035932;28;20382;-85
2022/09/24 03:12:47;;;;;;;9.52;1.88;;;20.10;99.90;;;;;;5035632;28;20381;-89
2022/09/24 03:15:15;;;;;;;6.70;1.90;;;19.80;99.90;;;;;;5019042;28;20881;-90
2022/09/24 03:17:42;;;;;;;4.07;1.23;;;18.40;99.90;;;;;;5037709;28;20389;-87
2022/09/24 03:20:09;;;;;;;2.50;1.50;;;17.30;99.90;;;;;;5034652;28;20378;-88
2022/09/24 03:22:39;;;;;;;3.00;1.70;;;16.50;99.90;;;;;;5035637;28;20382;-89
2022/09/24 03:25:06;;;;;;;2.75;1.90;;;16.10;99.90;;;;;;5036987;28;20390;-88
2022/09/24 03:27:34;;;;;;;3.45;2.30;;;15.90;99.90;;;;;;5037177;28;20413;-89
2022/09/24 03:32:47;;;;;;;5.95;3.80;;;15.60;99.90;;;;;;5054671;28;20416;-88
2022/09/24 03:35:14;;;;;;;5.03;3.28;;;15.90;99.90;;;;;;5033002;28;20400;-89
2022/09/24 03:37:42;;;;;;;6.05;2.40;;;16.10;99.90;;;;;;5038791;28;20384;-88
2022/09/24 03:40:13;;;;;;;4.72;2.80;;;16.10;99.90;;;;;;5034860;28;20738;-87
2022/09/24 03:42:40;;;;;;;5.43;2.33;;;16.30;99.90;;;;;;5037693;28;20377;-90
2022/09/24 03:45:07;;;;;;;5.20;2.30;;;16.30;99.90;;;;;;5019954;28;20442;-86
2022/09/24 03:47:34;;;;;;;5.97;2.80;;;16.50;99.90;;;;;;5037419;28;20405;-86
2022/09/24 03:50:03;;;;;;;5.97;2.88;;;16.50;99.90;;;;;;5037118;28;20482;-92
2022/09/24 03:52:30;;;;;;;6.10;2.67;;;16.60;99.90;;;;;;5035299;28;20460;-83
2022/09/24 03:54:57;;;;;;;5.72;2.97;;;16.70;99.90;;;;;;5034974;28;20373;-87
2022/09/24 03:57:24;;;;;;;5.33;2.90;;;16.70;99.90;;;;;;5034645;28;20543;-92
2022/09/24 03:59:52;;;;;;;5.50;3.10;;;16.60;99.90;;;;;;5034426;28;20849;-91
2022/09/24 04:02:19;;;;;;;4.90;2.80;;;16.80;99.90;;;;;;5034499;28;20401;-84
2022/09/24 04:04:46;;;;;;;6.18;2.60;;;16.90;99.90;;;;;;5041286;28;20404;-83
2022/09/24 04:07:13;;;;;;;6.25;2.60;;;17.20;99.90;;;;;;5042293;28;20459;-85
2022/09/24 04:09:40;;;;;;;4.85;1.90;;;17.30;99.90;;;;;;5036521;28;20373;-85
2022/09/24 04:12:08;;;;;;;4.57;1.70;;;17.40;99.90;;;;;;5035014;28;20742;-83
2022/09/24 04:14:35;;;;;;;3.30;1.60;;;17.40;99.90;;;;;;5034598;28;20407;-91
2022/09/24 04:17:02;;;;;;;3.90;1.30;;;17.40;99.90;;;;;;5035606;28;20393;-84
2022/09/24 04:19:30;;;;;;;3.05;1.30;;;17.50;99.90;;;;;;5034061;28;20374;-89
2022/09/24 04:21:57;;;;;;;2.15;1.10;;;17.80;99.90;;;;;;5033833;28;20386;-82
2022/09/24 04:24:25;;;;;;;3.17;1.10;;;18.20;99.90;;;;;;5016842;28;20725;-89
2022/09/24 04:26:52;;;;;;;2.90;1.10;;;18.50;99.90;;;;;;5033924;28;20403;-85
2022/09/24 04:29:19;;;;;;;4.20;1.50;;;19.30;99.90;;;;;;5033717;28;20868;-86
2022/09/24 04:31:46;;;;;;;3.83;1.40;;;19.90;99.90;;;;;;5033323;28;20389;-89
2022/09/24 04:34:13;;;;;;;3.30;1.27;;;20.60;99.90;;;;;;5033099;28;20386;-84
2022/09/24 04:36:40;;;;;;;4.25;1.25;;;21.10;99.90;;;;;;5033187;28;20448;-85
2022/09/24 04:39:07;;;;;;;4.25;1.30;;;21.40;99.90;;;;;;5033613;28;20378;-85
2022/09/24 04:41:35;;;;;;;3.50;1.30;;;21.20;99.90;;;;;;5033259;28;20719;-85
2022/09/24 04:44:04;;;;;;;3.17;1.20;;;20.70;99.90;;;;;;5030198;28;20385;-86
2022/09/24 04:46:34;;;;;;;1.95;0.98;;;20.10;99.90;;;;;;5033116;28;20366;-88
2022/09/24 04:49:01;;;;;;;3.97;1.30;;;19.80;99.90;;;;;;5033834;28;20374;-88
2022/09/24 04:51:28;;;;;;;3.20;1.13;;;19.30;99.90;;;;;;5034027;28;20440;-85
2022/09/24 04:53:55;;;;;;;3.08;1.08;;;19.20;99.90;;;;;;5033669;28;20384;-84
2022/09/24 04:56:22;;;;;;;2.65;0.90;;;19.00;99.90;;;;;;5032891;28;20822;-83
2022/09/24 04:58:53;;;;;;;3.58;1.00;;;18.90;99.90;;;;;;5033038;28;20416;-86
2022/09/24 05:01:20;;;;;;;4.13;2.17;;;19.20;99.90;;;;;;5033072;28;20373;-84
2022/09/24 05:03:47;;;;;;;1.70;1.00;;;19.10;99.90;;;;;;5033695;28;20411;-87
2022/09/24 05:06:14;;;;;;;3.05;0.85;;;18.90;99.90;;;;;;5032950;28;20377;-84
2022/09/24 05:08:42;;;;;;;3.72;1.08;;;19.10;99.90;;;;;;5033376;28;20412;-88
2022/09/24 05:11:09;;;;;;;3.70;1.02;;;19.40;99.90;;;;;;5034604;28;20373;-87
2022/09/24 05:13:36;;;;;;;1.80;0.90;;;20.00;99.90;;;;;;5034803;28;20373;-85
2022/09/24 05:16:03;;;;;;;2.28;0.98;;;21.10;99.90;;;;;;5034222;28;20910;-84
2022/09/24 05:18:30;;;;;;;3.20;0.85;;;22.40;99.90;;;;;;5033275;28;20413;-85
2022/09/24 05:20:57;;;;;;;1.55;0.88;;;23.50;99.90;;;;;;5033027;28;20893;-84
2022/09/24 05:23:24;;;;;;;1.87;0.90;;;24.10;99.90;;;;;;5033618;28;20378;-86
2022/09/24 05:28:37;;;;;;;2.58;0.90;;;24.40;98.40;;;;;;5050421;28;20405;-82
2022/09/24 05:31:04;;;;;;;2.17;1.00;;;24.90;97.10;;;;;;5049334;28;20476;-84
2022/09/24 05:33:31;;;;;;;3.00;0.90;;;24.80;95.80;;;;;;5049449;28;20388;-86
2022/09/24 05:35:58;;;;;;;4.90;1.10;;;24.80;94.50;;;;;;5048426;28;20432;-84
2022/09/24 05:38:25;;;;;;;2.83;1.00;;;24.20;95.30;;;;;;5048478;28;20374;-84
2022/09/24 05:40:53;;;;;;;2.50;1.00;;;24.70;95.20;;;;;;5034822;28;20369;-83
2022/09/24 05:43:20;;;;;;;3.20;1.10;;;24.40;94.70;;;;;;5032646;28;20381;-84
2022/09/24 05:45:49;;;;;;;2.60;1.13;;;24.40;95.20;;;;;;5031817;28;20373;-83
2022/09/24 05:48:17;;;;;;;4.00;1.20;;;24.70;94.60;;;;;;5032513;28;20397;-83
2022/09/24 05:50:44;;;;;;;2.80;1.35;;;24.90;94.30;;;;;;5032753;28;20431;-85
2022/09/24 05:53:11;;;;;;;3.47;1.10;;;24.90;92.70;;;;;;5032531;28;20374;-84
2022/09/24 05:55:38;;;;;;;2.50;0.93;;;24.80;93.70;;;;;;5032628;28;20869;-83
2022/09/24 05:58:09;;;;;;;3.10;1.10;;;25.40;93.10;;;;;;5033151;28;20788;-81
2022/09/24 06:00:36;;;;;;;2.40;1.10;;;25.50;91.40;;;;;;5032574;28;20370;-83
2022/09/24 06:03:06;;;;;;;3.63;1.05;;;24.60;92.60;;;;;;5032903;28;20377;-80
2022/09/24 06:05:34;;;;;;;4.70;1.10;;;23.30;94.40;;;;;;5032381;28;20865;-84
2022/09/24 06:08:03;;;;;;;2.88;1.00;;;23.20;94.50;;;;;;5032474;28;20793;-85
2022/09/24 06:10:30;;;;;;;2.65;1.00;;;23.50;95.10;;;;;;5032872;28;20380;-88
2022/09/24 06:12:57;;;;;;;2.90;0.98;;;24.10;94.20;;;;;;5033209;28;20746;-86
2022/09/24 06:15:27;;;;;;;3.03;1.10;;;24.80;91.30;;;;;;5035319;28;20425;-85
2022/09/24 06:17:55;;;;;;;3.03;2.00;;;24.80;90.60;;;;;;5040122;28;20859;-79
2022/09/24 06:20:22;;;;;;;2.50;1.27;;;25.10;89.00;;;;;;5036107;28;20381;-83
2022/09/24 06:22:49;;;;;;;3.03;1.20;;;25.00;87.60;;;;;;5033399;28;20382;-85
2022/09/24 06:25:17;;;;;;;3.00;1.50;;;25.20;89.70;;;;;;5032794;28;20453;-86
2022/09/24 06:27:44;;;;;;;1.60;1.20;;;25.20;87.20;;;;;;5014606;28;20412;-83
2022/09/24 06:30:11;;;;;;;2.33;1.00;;;24.80;88.10;;;;;;5032478;28;20378;-88
2022/09/24 06:32:38;;;;;;;2.95;1.20;;;24.60;88.80;;;;;;5032177;28;20483;-85
2022/09/24 06:35:06;;;;;;;3.35;1.20;;;24.60;87.00;;;;;;5032779;28;20511;-82
2022/09/24 06:37:33;;;;;;;4.20;1.13;;;24.10;87.70;;;;;;5032561;28;20448;-82
2022/09/24 06:40:00;;;;;;;2.33;1.27;;;23.30;89.20;;;;;;5032410;28;20408;-87
2022/09/24 06:42:28;;;;;;;3.90;1.40;;;22.00;92.40;;;;;;5032060;28;20377;-87
2022/09/24 06:44:55;;;;;;;2.00;1.30;;;20.70;96.10;;;;;;5032652;28;20378;-84
2022/09/24 06:47:23;;;;;;;3.22;1.55;;;19.90;99.00;;;;;;5032194;28;20406;-84
2022/09/24 06:49:50;;;;;;;3.40;1.70;;;19.30;99.90;;;;;;5031854;28;20420;-83
2022/09/24 06:52:17;;;;;;;3.72;1.50;;;18.70;99.90;;;;;;5032102;28;20873;-85
2022/09/24 06:54:44;;;;;;;4.38;1.50;;;18.30;99.90;;;;;;5032866;28;20382;-88
2022/09/24 06:57:12;;;;;;;2.45;1.30;;;18.10;99.90;;;;;;5034407;28;20385;-87
2022/09/24 06:59:39;;;;;;;3.88;1.88;;;17.90;99.90;;;;;;5035590;28;20380;-86
2022/09/24 07:02:08;;;;;;;3.70;2.05;;;17.70;99.90;;;;;;5035813;28;20452;-84
2022/09/24 07:04:36;;;;;;;4.45;2.00;;;17.40;99.90;;;;;;5035461;28;20378;-81
2022/09/24 07:09:50;;;;;;;4.10;1.83;;;17.30;99.90;;;;;;5036450;28;20373;-82
2022/09/24 07:12:17;;;;;;;5.50;2.08;;;17.10;99.90;;;;;;5044765;28;20460;-87
2022/09/24 07:14:45;;;;;;;6.32;2.60;;;16.80;99.90;;;;;;5045879;28;20496;-90
2022/09/24 07:17:12;;;;;;;8.50;2.90;;;16.60;99.90;;;;;;5036147;28;20427;-85
2022/09/24 07:19:40;;;;;;;7.53;2.95;;;16.20;99.90;;;;;;5035266;28;20381;-88
2022/09/24 07:22:08;;;;;;;7.55;2.90;;;16.00;99.90;;;;;;5036339;28;20373;-87
2022/09/24 07:24:35;;;;;;;5.85;2.70;;;16.00;99.90;;;;;;5035470;28;20845;-84
2022/09/24 07:27:04;;;;;;;5.88;2.80;;;15.80;99.90;;;;;;5035503;28;20397;-89
2022/09/24 07:29:32;;;;;;;5.97;2.60;;;15.70;99.90;;;;;;5025900;28;20381;-85
2022/09/24 07:31:59;;;;;;;4.65;2.88;;;15.70;99.90;;;;;;5044026;28;20386;-86
2022/09/24 07:34:27;;;;;;;7.27;4.17;;;15.80;99.90;;;;;;5040248;28;20386;-92
2022/09/24 07:36:55;;;;;;;10.93;5.90;;;15.40;99.90;;;;;;5035010;28;20365;-89
2022/09/24 07:39:24;;;;;;;11.25;6.60;;;15.70;99.90;;;;;;5017196;28;20381;-84
2022/09/24 07:41:52;;;;;;;8.20;4.45;;;15.60;99.90;;;;;;5017268;28;20468;-88
2022/09/24 07:44:19;;;;;;;8.00;4.20;;;15.50;99.90;;;;;;5035033;28;20385;-88
2022/09/24 07:46:48;;;;;;;14.35;8.43;;;15.40;99.90;;;;;;5034499;28;20374;-81
2022/09/24 07:49:16;;;;;;;24.03;14.47;;;15.30;99.90;;;;;;5034407;28;20880;-87
2022/09/24 07:51:44;;;;;;;27.85;15.88;;;15.20;99.90;;;;;;5034574;28;20381;-82
2022/09/24 07:54:12;;;;;;;18.63;10.50;;;15.10;99.90;;;;;;5031280;28;20868;-81
2022/09/24 07:56:39;;;;;;;10.73;6.18;;;15.10;99.90;;;;;;5034173;28;20378;-84
2022/09/24 07:59:09;;;;;;;7.13;3.95;;;15.00;99.90;;;;;;5034208;28;20743;-76
2022/09/24 08:01:38;;;;;;;5.68;2.90;;;15.10;99.90;;;;;;5034165;28;20369;-80
2022/09/24 08:04:06;;;;;;;6.50;3.38;;;15.00;99.90;;;;;;5034221;28;20432;-79
2022/09/24 08:06:37;;;;;;;5.72;3.20;;;15.00;99.90;;;;;;5034008;28;20422;-79
2022/09/24 08:09:05;;;;;;;4.78;3.05;;;15.00;99.90;;;;;;5033420;28;20389;-86
2022/09/24 08:11:33;;;;;;;7.40;3.15;;;15.10;99.90;;;;;;5033751;28;20382;-80
2022/09/24 08:14:00;;;;;;;6.50;3.30;;;15.00;99.90;;;;;;5033888;28;20377;-86
2022/09/24 08:16:27;;;;;;;7.18;3.75;;;;;;;;;;5034013;28;20381;-81
2022/09/24 08:18:56;;;;;;;5.72;3.28;;;15.10;99.90;;;;;;5034833;28;20384;-88
2022/09/24 08:21:23;;;;;;;6.55;3.65;;;15.20;99.90;;;;;;5033853;28;20908;-82
2022/09/24 08:23:51;;;;;;;5.78;3.40;;;15.30;99.90;;;;;;5033532;28;20365;-87
2022/09/24 08:26:18;;;;;;;6.50;3.50;;;15.30;99.90;;;;;;5033655;28;20431;-88
2022/09/24 08:28:50;;;;;;;7.22;3.72;;;15.40;99.90;;;;;;5033828;28;20402;-83
2022/09/24 08:31:18;;;;;;;7.17;4.60;;;15.40;99.90;;;;;;5029034;28;20389;-79
2022/09/24 08:33:49;;;;;;;6.65;4.00;;;15.30;99.90;;;;;;5033477;28;20385;-85
2022/09/24 08:36:20;;;;;;;5.67;3.70;;;15.20;99.90;;;;;;5033415;28;20376;-85
2022/09/24 08:38:47;;;;;;;7.65;4.13;;;15.10;99.90;;;;;;5033419;28;20396;-81
2022/09/24 08:41:36;;;;;;;9.50;4.10;;;15.20;99.90;;;;;;5033567;28;20382;-83
2022/09/24 08:47:32;;;;;;;9.93;6.70;;;15.10;99.90;;;;;;4973902;28;20413;-85
2022/09/24 08:50:08;;;;;;;12.13;6.40;;;15.00;99.90;;;;;;4973146;28;20390;-82
2022/09/24 08:52:45;;;;;;;9.18;5.28;;;14.90;99.90;;;;;;4973690;28;20433;-80
2022/09/24 08:55:40;;;;;;;10.68;5.95;;;14.80;99.90;;;;;;4973100;28;20385;-81
2022/09/24 08:58:28;;;;;;;10.70;6.80;;;14.80;99.90;;;;;;4972981;28;20386;-84
2022/09/24 09:01:04;;;;;;;11.77;7.07;;;14.70;99.90;;;;;;4973480;28;20378;-87
2022/09/24 09:03:56;;;;;;;10.73;6.88;;;14.70;99.90;;;;;;4973883;28;20394;-87
2022/09/24 09:06:54;;;;;;;12.25;7.53;;;14.60;99.90;;;;;;4973145;28;20867;-88
2022/09/24 09:09:47;;;;;;;12.75;7.55;;;14.50;99.90;;;;;;4972433;28;20802;-82
2022/09/24 09:12:24;;;;;;;12.73;7.35;;;14.40;99.90;;;;;;4960522;28;20414;-77
2022/09/24 09:15:33;;;;;;;13.63;8.50;;;14.50;99.90;;;;;;4973602;28;20466;-85
2022/09/24 09:18:17;;;;;;;13.15;9.10;;;14.40;99.90;;;;;;4952840;29;20392;-85
2022/09/24 09:20:48;;;;;;;12.73;8.48;;;14.30;99.90;;;;;;4952243;28;20392;-85
2022/09/24 09:23:27;;;;;;;13.52;8.40;;;14.20;99.90;;;;;;4970539;28;20390;-83
2022/09/24 09:25:59;;;;;;;13.00;9.23;;;14.20;99.90;;;;;;5013047;28;20775;-82
2022/09/24 09:28:27;;;;;;;14.50;11.38;;;14.10;99.90;;;;;;5014599;28;20469;-87
2022/09/24 09:31:02;;;;;;;16.98;12.85;;;14.10;99.90;;;;;;5016378;28;20364;-82
2022/09/24 09:34:06;;;;;;;22.73;18.65;;;14.00;99.90;;;;;;5014910;28;20386;-77
2022/09/24 09:36:56;;;;;;;16.90;10.60;;;14.00;99.90;;;;;;5013196;28;20367;-83
2022/09/24 09:39:36;;;;;;;14.85;10.77;;;13.90;99.90;;;;;;5011728;28;20755;-88
2022/09/24 09:42:21;;;;;;;18.83;15.98;;;13.90;99.90;;;;;;5011630;28;20379;-82
2022/09/24 09:44:51;;;;;;;16.83;12.37;;;13.80;99.90;;;;;;5012733;28;20494;-78
2022/09/24 09:47:43;;;;;;;17.80;11.60;;;13.80;99.90;;;;;;4996457;28;20402;-86
2022/09/24 09:50:38;;;;;;;19.98;14.73;;;13.80;99.90;;;;;;5011995;28;20391;-86
2022/09/24 09:53:05;;;;;;;13.20;9.57;;;13.70;99.90;;;;;;5018581;28;20384;-81
2022/09/24 09:55:37;;;;;;;13.65;9.13;;;13.60;99.90;;;;;;5032276;28;20366;-84
2022/09/24 09:58:23;;;;;;;12.13;9.43;;;13.60;99.90;;;;;;5032380;28;20428;-87
2022/09/24 10:00:52;;;;;;;14.00;9.18;;;13.60;99.90;;;;;;5032641;28;20407;-83
2022/09/24 10:03:45;;;;;;;14.05;9.80;;;13.50;99.90;;;;;;5032976;28;20377;-86
2022/09/24 10:06:22;;;;;;;13.52;9.63;;;13.40;99.90;;;;;;5026344;28;20378;-78
2022/09/24 10:08:50;;;;;;;12.38;9.20;;;13.40;99.90;;;;;;5014900;28;20435;-78
2022/09/24 10:11:18;;;;;;;14.63;8.95;;;13.40;99.90;;;;;;5033117;28;20383;-76
2022/09/24 10:13:46;;;;;;;13.20;8.68;;;13.30;99.90;;;;;;5032417;28;20473;-85
2022/09/24 10:16:16;;;;;;;13.82;9.63;;;13.30;99.90;;;;;;5032909;28;20424;-77
2022/09/24 10:18:49;;;;;;;14.30;8.77;;;13.30;99.90;;;;;;5033053;28;20378;-82
2022/09/24 10:21:35;;;;;;;13.83;9.63;;;13.30;99.90;;;;;;5032517;28;20400;-81
2022/09/24 10:24:10;;;;;;;11.75;9.10;;;13.20;99.90;;;;;;5032210;28;20392;-86
2022/09/24 10:26:43;;;;;;;12.02;9.32;;;13.10;99.90;;;;;;5032977;28;20776;-79
2022/09/24 10:32:23;;;;;;;12.75;11.00;;;13.20;99.90;;;;;;5036055;28;20945;-84
2022/09/24 10:34:59;;;;;;;12.95;10.75;;;13.10;99.90;;;;;;5036867;28;20374;-84
2022/09/24 10:37:27;;;;;;;11.70;9.48;;;13.10;99.90;;;;;;5037433;28;20456;-77
2022/09/24 10:40:19;;;;;;;14.40;11.50;;;13.00;99.90;;;;;;5018930;28;20753;-76
2022/09/24 10:43:01;;;;;;;15.10;11.60;;;13.00;99.90;;;;;;5036789;28;20412;-83
2022/09/24 10:45:45;;;;;;;16.33;12.23;;;13.00;99.90;;;;;;5035987;28;20380;-78
2022/09/24 10:48:25;;;;;;;16.17;12.60;;;13.00;99.90;;;;;;5035447;28;20927;-77
2022/09/24 10:51:22;;;;;;;17.77;13.48;;;12.90;99.90;;;;;;5035441;28;20469;-85
2022/09/24 10:54:10;;;;;;;18.13;13.07;;;13.00;99.90;;;;;;4955503;29;20395;-86
2022/09/24 10:56:50;;;;;;;18.58;13.50;;;12.90;99.90;;;;;;4955757;29;20513;-85
2022/09/24 10:59:38;;;;;;;14.53;11.43;;;12.90;99.90;;;;;;4956659;29;20501;-84
2022/09/24 11:02:24;;;;;;;14.70;11.20;;;12.90;99.90;;;;;;4955058;29;20426;-77
2022/09/24 11:04:57;;;;;;;19.10;13.95;;;12.80;99.90;;;;;;4955084;29;20469;-86
2022/09/24 11:07:42;;;;;;;35.17;25.25;;;12.80;99.90;;;;;;4954895;29;20443;-82
2022/09/24 11:10:34;;;;;;;26.85;18.98;;;12.80;99.90;;;;;;4955332;29;20407;-86
2022/09/24 11:13:30;;;;;;;18.13;13.63;;;12.70;99.90;;;;;;4954744;29;20383;-85
2022/09/24 11:15:57;;;;;;;18.27;12.13;;;12.70;99.90;;;;;;4955546;29;20373;-86
2022/09/24 11:18:52;;;;;;;14.38;10.80;;;12.70;99.90;;;;;;4954725;29;20393;-86
2022/09/24 11:21:56;;;;;;;13.27;10.32;;;12.80;99.90;;;;;;4954840;29;20380;-84
2022/09/24 11:24:35;;;;;;;15.87;11.77;;;12.80;99.90;;;;;;4954971;29;20445;-85
2022/09/24 11:27:03;;;;;;;48.97;36.65;;;12.80;99.90;;;;;;4955369;29;20400;-81
2022/09/24 11:29:50;;;;;;;38.83;26.08;;;12.80;99.90;;;;;;4960724;28;20900;-78
2022/09/24 11:32:34;;;;;;;22.73;17.85;;;12.80;99.90;;;;;;5034673;28;20425;-85
2022/09/24 11:35:05;;;;;;;18.65;14.43;;;12.70;99.90;;;;;;5034963;28;20370;-86
2022/09/24 11:38:08;;;;;;;16.80;14.03;;;12.60;99.90;;;;;;5035197;28;20381;-86
2022/09/24 11:41:03;;;;;;;15.55;12.38;;;12.60;99.90;;;;;;5034887;28;20386;-76
2022/09/24 11:43:33;;;;;;;19.00;13.60;;;12.50;99.90;;;;;;5033902;28;20376;-86
2022/09/24 11:46:35;;;;;;;14.90;12.27;;;12.60;99.90;;;;;;5034709;28;20406;-83
2022/09/24 11:49:23;;;;;;;15.98;11.80;;;12.50;99.90;;;;;;5034919;28;20389;-77
2022/09/24 11:52:08;;;;;;;15.38;11.85;;;12.50;99.90;;;;;;5034366;28;20370;-86
2022/09/24 11:54:41;;;;;;;16.33;13.35;;;12.40;99.90;;;;;;5034621;28;20384;-83
2022/09/24 11:57:43;;;;;;;18.63;13.43;;;12.40;99.90;;;;;;5034100;28;20907;-86
2022/09/24 12:00:19;;;;;;;15.77;11.93;;;12.40;99.90;;;;;;4954057;29;20400;-87
2022/09/24 12:03:14;;;;;;;12.27;10.90;;;12.40;99.90;;;;;;4953891;29;20384;-76
2022/09/24 12:05:52;;;;;;;15.57;12.18;;;12.30;99.90;;;;;;4878586;29;20402;-79
2022/09/24 12:08:26;;;;;;;15.60;12.60;;;12.20;99.90;;;;;;4878141;29;20407;-76
2022/09/24 12:11:05;;;;;;;17.10;13.43;;;12.20;99.90;;;;;;4878340;29;20399;-83
2022/09/24 12:13:41;;;;;;;17.33;14.30;;;12.20;99.90;;;;;;4878093;29;20777;-81
2022/09/24 12:16:18;;;;;;;15.88;13.60;;;12.10;99.90;;;;;;4877051;29;20388;-80
2022/09/24 12:19:07;;;;;;;15.95;13.13;;;12.10;99.90;;;;;;4878692;29;20406;-76
2022/09/24 12:21:40;;;;;;;14.53;12.23;;;12.10;99.90;;;;;;4877791;29;20383;-81
2022/09/24 12:24:19;;;;;;;13.05;11.65;;;12.10;99.90;;;;;;4878338;29;20479;-81
2022/09/24 12:26:49;;;;;;;13.68;12.20;;;12.00;99.90;;;;;;4878007;29;20387;-88
2022/09/24 12:32:55;;;;;;;16.75;12.85;;;11.90;99.90;;;;;;4877711;29;20478;-78
2022/09/24 12:35:54;;;;;;;19.48;14.70;;;11.80;99.90;;;;;;4906172;29;20510;-79
2022/09/24 12:38:47;;;;;;;20.85;12.93;;;11.80;99.90;;;;;;4898938;29;21002;-81
2022/09/24 12:41:16;;;;;;;13.68;11.23;;;11.80;99.90;;;;;;4905710;29;20467;-81
2022/09/24 12:43:44;;;;;;;13.90;11.25;;;11.80;99.90;;;;;;4959363;29;20440;-83
2022/09/24 12:46:43;;;;;;;13.03;11.40;;;11.70;99.90;;;;;;4954385;28;20415;-80
2022/09/24 12:49:36;;;;;;;15.80;12.40;;;11.60;99.90;;;;;;4953747;29;20400;-88
2022/09/24 12:52:36;;;;;;;16.63;13.27;;;11.60;99.90;;;;;;4896506;29;20470;-86
2022/09/24 12:55:05;;;;;;;13.80;12.32;;;11.70;99.90;;;;;;4878131;29;20387;-80
2022/09/24 12:57:40;;;;;;;14.20;12.15;;;11.70;99.90;;;;;;4878256;29;20757;-79
2022/09/24 13:00:42;;;;;;;16.52;13.18;;;11.70;99.90;;;;;;4875113;29;20825;-80
2022/09/24 13:03:45;;;;;;;15.30;12.35;;;11.60;99.90;;;;;;4878009;29;20840;-77
2022/09/24 13:06:31;;;;;;;15.57;11.35;;;11.60;99.90;;;;;;4877645;29;20391;-76
2022/09/24 13:08:58;;;;;;;14.00;11.65;;;11.60;99.90;;;;;;4877511;29;20419;-88
2022/09/24 13:11:33;;;;;;;15.43;11.27;;;11.50;99.90;;;;;;4877232;29;20401;-83
2022/09/24 13:14:11;;;;;;;13.38;11.10;;;11.50;99.90;;;;;;4877435;29;20871;-86
2022/09/24 13:16:41;;;;;;;12.65;9.95;;;11.40;99.90;;;;;;4896359;29;20401;-83
2022/09/24 13:19:42;;;;;;;12.75;10.07;;;11.40;99.90;;;;;;4897128;29;20449;-85
2022/09/24 13:22:31;;;;;;;12.70;10.25;;;11.40;99.90;;;;;;4858867;29;20420;-87
2022/09/24 13:25:12;;;;;;;11.50;10.30;;;11.40;99.90;;;;;;4859131;29;20815;-83
2022/09/24 13:27:42;;;;;;;12.38;10.70;;;11.50;99.90;;;;;;4860063;29;20420;-83
2022/09/24 13:30:08;;;;;;;11.07;9.52;;;11.50;99.90;;;;;;4931306;29;20901;-85
2022/09/24 13:33:16;;;;;;;13.85;11.88;;;11.40;99.90;;;;;;4948086;29;20413;-85
2022/09/24 13:36:01;;;;;;;16.73;12.70;;;11.40;99.90;;;;;;4952571;29;20931;-84